sensor_id;sensor_type;location;lat;lon;timestamp;P1;durP1;ratioP1;P2;durP2;ratioP2
25531;SDS011;13429;48.816;9.118;2023-02-11T00:00:10;49.25;;;24.92;;
25531;SDS011;13429;48.816;9.118;2023-02-11T00:02:36;56.22;;;26.33;;
25531;SDS011;13429;48.816;9.118;2023-02-11T00:05:02;50.97;;;25.33;;
25531;SDS011;13429;48.816;9.118;2023-02-11T00:07:29;52.00;;;25.35;;
25531;SDS011;13429;48.816;9.118;2023-02-11T00:09:55;45.63;;;22.77;;
25531;SDS011;13429;48.816;9.118;2023-02-11T00:12:21;45.80;;;22.73;;
25531;SDS011;13429;48.816;9.118;2023-02-11T00:14:47;48.13;;;23.80;;
25531;SDS011;13429;48.816;9.118;2023-02-11T00:17:13;50.90;;;25.48;;
25531;SDS011;13429;48.816;9.118;2023-02-11T00:19:39;49.55;;;23.10;;
25531;SDS011;13429;48.816;9.118;2023-02-11T00:22:05;50.75;;;25.10;;
25531;SDS011;13429;48.816;9.118;2023-02-11T00:24:31;47.88;;;24.35;;
25531;SDS011;13429;48.816;9.118;2023-02-11T00:26:57;49.33;;;23.88;;
25531;SDS011;13429;48.816;9.118;2023-02-11T00:29:24;59.03;;;26.90;;
25531;SDS011;13429;48.816;9.118;2023-02-11T00:31:50;50.15;;;24.33;;
25531;SDS011;13429;48.816;9.118;2023-02-11T00:34:16;49.08;;;24.48;;
25531;SDS011;13429;48.816;9.118;2023-02-11T00:36:41;47.08;;;23.60;;
25531;SDS011;13429;48.816;9.118;2023-02-11T00:39:08;47.03;;;24.42;;
25531;SDS011;13429;48.816;9.118;2023-02-11T00:41:34;48.72;;;24.55;;
25531;SDS011;13429;48.816;9.118;2023-02-11T00:44:00;51.03;;;23.38;;
25531;SDS011;13429;48.816;9.118;2023-02-11T00:46:26;42.58;;;22.23;;
25531;SDS011;13429;48.816;9.118;2023-02-11T00:48:53;48.85;;;23.42;;
25531;SDS011;13429;48.816;9.118;2023-02-11T00:51:21;44.30;;;23.25;;
25531;SDS011;13429;48.816;9.118;2023-02-11T00:53:47;46.85;;;23.90;;
25531;SDS011;13429;48.816;9.118;2023-02-11T00:56:13;54.47;;;24.38;;
25531;SDS011;13429;48.816;9.118;2023-02-11T00:58:39;45.90;;;24.05;;
25531;SDS011;13429;48.816;9.118;2023-02-11T01:01:05;52.88;;;22.92;;
25531;SDS011;13429;48.816;9.118;2023-02-11T01:03:32;49.25;;;21.85;;
25531;SDS011;13429;48.816;9.118;2023-02-11T01:05:58;46.13;;;22.20;;
25531;SDS011;13429;48.816;9.118;2023-02-11T01:08:24;47.97;;;22.08;;
25531;SDS011;13429;48.816;9.118;2023-02-11T01:10:57;45.58;;;23.02;;
25531;SDS011;13429;48.816;9.118;2023-02-11T01:13:24;43.03;;;19.83;;
25531;SDS011;13429;48.816;9.118;2023-02-11T01:15:50;39.15;;;21.20;;
25531;SDS011;13429;48.816;9.118;2023-02-11T01:18:16;50.05;;;22.77;;
25531;SDS011;13429;48.816;9.118;2023-02-11T01:20:42;47.13;;;23.00;;
25531;SDS011;13429;48.816;9.118;2023-02-11T01:23:08;47.45;;;22.05;;
25531;SDS011;13429;48.816;9.118;2023-02-11T01:25:34;41.17;;;21.85;;
25531;SDS011;13429;48.816;9.118;2023-02-11T01:28:00;47.72;;;22.75;;
25531;SDS011;13429;48.816;9.118;2023-02-11T01:30:26;43.42;;;22.40;;
25531;SDS011;13429;48.816;9.118;2023-02-11T01:32:52;47.60;;;23.05;;
25531;SDS011;13429;48.816;9.118;2023-02-11T01:35:18;46.38;;;22.45;;
25531;SDS011;13429;48.816;9.118;2023-02-11T01:37:44;53.28;;;23.70;;
25531;SDS011;13429;48.816;9.118;2023-02-11T01:40:12;45.45;;;22.30;;
25531;SDS011;13429;48.816;9.118;2023-02-11T01:42:38;50.05;;;23.23;;
25531;SDS011;13429;48.816;9.118;2023-02-11T01:47:49;41.88;;;21.15;;
25531;SDS011;13429;48.816;9.118;2023-02-11T01:50:15;43.28;;;20.35;;
25531;SDS011;13429;48.816;9.118;2023-02-11T01:52:41;41.45;;;20.92;;
25531;SDS011;13429;48.816;9.118;2023-02-11T01:55:09;46.33;;;22.52;;
25531;SDS011;13429;48.816;9.118;2023-02-11T01:57:55;43.75;;;20.38;;
25531;SDS011;13429;48.816;9.118;2023-02-11T02:00:30;44.67;;;21.38;;
25531;SDS011;13429;48.816;9.118;2023-02-11T02:05:27;40.67;;;20.42;;
25531;SDS011;13429;48.816;9.118;2023-02-11T02:10:23;44.75;;;20.73;;
25531;SDS011;13429;48.816;9.118;2023-02-11T02:12:50;41.33;;;21.10;;
25531;SDS011;13429;48.816;9.118;2023-02-11T02:15:59;41.67;;;21.17;;
25531;SDS011;13429;48.816;9.118;2023-02-11T02:23:22;42.75;;;21.02;;
25531;SDS011;13429;48.816;9.118;2023-02-11T02:26:13;37.22;;;19.08;;
25531;SDS011;13429;48.816;9.118;2023-02-11T02:31:33;40.35;;;19.95;;
25531;SDS011;13429;48.816;9.118;2023-02-11T02:34:08;40.05;;;19.83;;
25531;SDS011;13429;48.816;9.118;2023-02-11T02:37:12;40.47;;;20.38;;
25531;SDS011;13429;48.816;9.118;2023-02-11T02:39:32;40.33;;;20.10;;
25531;SDS011;13429;48.816;9.118;2023-02-11T02:41:59;41.58;;;20.67;;
25531;SDS011;13429;48.816;9.118;2023-02-11T02:44:25;42.85;;;21.05;;
25531;SDS011;13429;48.816;9.118;2023-02-11T02:46:51;46.45;;;22.30;;
25531;SDS011;13429;48.816;9.118;2023-02-11T02:49:17;46.63;;;21.48;;
25531;SDS011;13429;48.816;9.118;2023-02-11T02:54:43;44.97;;;19.75;;
25531;SDS011;13429;48.816;9.118;2023-02-11T03:02:38;45.88;;;20.38;;
25531;SDS011;13429;48.816;9.118;2023-02-11T03:07:47;45.20;;;21.30;;
25531;SDS011;13429;48.816;9.118;2023-02-11T03:10:18;40.40;;;18.70;;
25531;SDS011;13429;48.816;9.118;2023-02-11T03:12:46;38.80;;;19.37;;
25531;SDS011;13429;48.816;9.118;2023-02-11T03:15:13;40.47;;;19.02;;
25531;SDS011;13429;48.816;9.118;2023-02-11T03:17:40;40.15;;;18.75;;
25531;SDS011;13429;48.816;9.118;2023-02-11T03:20:09;43.88;;;19.65;;
25531;SDS011;13429;48.816;9.118;2023-02-11T03:22:38;35.20;;;17.70;;
25531;SDS011;13429;48.816;9.118;2023-02-11T03:25:05;39.67;;;19.52;;
25531;SDS011;13429;48.816;9.118;2023-02-11T03:30:05;43.05;;;19.52;;
25531;SDS011;13429;48.816;9.118;2023-02-11T03:32:38;39.20;;;19.55;;
25531;SDS011;13429;48.816;9.118;2023-02-11T03:35:07;40.75;;;19.33;;
25531;SDS011;13429;48.816;9.118;2023-02-11T03:37:39;41.67;;;19.63;;
25531;SDS011;13429;48.816;9.118;2023-02-11T03:40:12;44.50;;;20.60;;
25531;SDS011;13429;48.816;9.118;2023-02-11T03:42:50;40.53;;;19.05;;
25531;SDS011;13429;48.816;9.118;2023-02-11T03:45:18;40.08;;;20.05;;
25531;SDS011;13429;48.816;9.118;2023-02-11T03:47:45;38.90;;;20.40;;
25531;SDS011;13429;48.816;9.118;2023-02-11T03:50:14;42.33;;;19.33;;
25531;SDS011;13429;48.816;9.118;2023-02-11T03:52:41;40.50;;;19.80;;
25531;SDS011;13429;48.816;9.118;2023-02-11T03:55:08;39.85;;;18.60;;
25531;SDS011;13429;48.816;9.118;2023-02-11T03:57:36;39.63;;;19.40;;
25531;SDS011;13429;48.816;9.118;2023-02-11T04:00:02;38.00;;;19.63;;
25531;SDS011;13429;48.816;9.118;2023-02-11T04:02:30;44.55;;;21.35;;
25531;SDS011;13429;48.816;9.118;2023-02-11T04:04:56;40.60;;;20.27;;
25531;SDS011;13429;48.816;9.118;2023-02-11T04:07:22;39.17;;;19.63;;
25531;SDS011;13429;48.816;9.118;2023-02-11T04:09:48;43.95;;;20.77;;
25531;SDS011;13429;48.816;9.118;2023-02-11T04:12:14;44.28;;;22.08;;
25531;SDS011;13429;48.816;9.118;2023-02-11T04:14:40;43.15;;;21.58;;
25531;SDS011;13429;48.816;9.118;2023-02-11T04:17:06;39.60;;;19.63;;
25531;SDS011;13429;48.816;9.118;2023-02-11T04:19:32;44.90;;;20.67;;
25531;SDS011;13429;48.816;9.118;2023-02-11T04:21:59;42.00;;;20.33;;
25531;SDS011;13429;48.816;9.118;2023-02-11T04:24:25;37.85;;;19.38;;
25531;SDS011;13429;48.816;9.118;2023-02-11T04:26:51;35.58;;;17.23;;
25531;SDS011;13429;48.816;9.118;2023-02-11T04:29:17;38.10;;;19.05;;
25531;SDS011;13429;48.816;9.118;2023-02-11T04:31:43;38.55;;;18.58;;
25531;SDS011;13429;48.816;9.118;2023-02-11T04:34:09;39.25;;;17.77;;
25531;SDS011;13429;48.816;9.118;2023-02-11T04:36:35;42.92;;;20.75;;
25531;SDS011;13429;48.816;9.118;2023-02-11T04:39:01;39.42;;;19.80;;
25531;SDS011;13429;48.816;9.118;2023-02-11T04:41:27;31.20;;;17.70;;
25531;SDS011;13429;48.816;9.118;2023-02-11T04:43:59;37.83;;;18.30;;
25531;SDS011;13429;48.816;9.118;2023-02-11T04:46:26;42.92;;;21.60;;
25531;SDS011;13429;48.816;9.118;2023-02-11T04:48:52;42.90;;;20.40;;
25531;SDS011;13429;48.816;9.118;2023-02-11T04:51:18;40.88;;;19.23;;
25531;SDS011;13429;48.816;9.118;2023-02-11T04:56:47;32.30;;;16.85;;
25531;SDS011;13429;48.816;9.118;2023-02-11T04:59:13;39.63;;;19.02;;
25531;SDS011;13429;48.816;9.118;2023-02-11T05:01:40;36.67;;;18.90;;
25531;SDS011;13429;48.816;9.118;2023-02-11T05:04:06;35.00;;;18.63;;
25531;SDS011;13429;48.816;9.118;2023-02-11T05:06:32;34.80;;;18.55;;
25531;SDS011;13429;48.816;9.118;2023-02-11T05:08:58;33.67;;;16.52;;
25531;SDS011;13429;48.816;9.118;2023-02-11T05:14:27;35.67;;;18.17;;
25531;SDS011;13429;48.816;9.118;2023-02-11T05:16:53;34.47;;;18.27;;
25531;SDS011;13429;48.816;9.118;2023-02-11T05:19:19;35.50;;;19.17;;
25531;SDS011;13429;48.816;9.118;2023-02-11T05:21:45;37.03;;;18.85;;
25531;SDS011;13429;48.816;9.118;2023-02-11T05:24:11;35.75;;;18.00;;
25531;SDS011;13429;48.816;9.118;2023-02-11T05:26:37;34.75;;;18.33;;
25531;SDS011;13429;48.816;9.118;2023-02-11T05:29:03;36.28;;;18.88;;
25531;SDS011;13429;48.816;9.118;2023-02-11T05:31:29;40.35;;;19.73;;
25531;SDS011;13429;48.816;9.118;2023-02-11T05:33:56;40.47;;;20.23;;
25531;SDS011;13429;48.816;9.118;2023-02-11T05:36:22;32.80;;;18.13;;
25531;SDS011;13429;48.816;9.118;2023-02-11T05:38:48;39.30;;;18.95;;
25531;SDS011;13429;48.816;9.118;2023-02-11T05:41:15;35.20;;;18.45;;
25531;SDS011;13429;48.816;9.118;2023-02-11T05:43:41;36.38;;;19.20;;
25531;SDS011;13429;48.816;9.118;2023-02-11T05:46:07;41.50;;;20.10;;
25531;SDS011;13429;48.816;9.118;2023-02-11T05:48:33;37.17;;;18.45;;
25531;SDS011;13429;48.816;9.118;2023-02-11T05:50:59;35.08;;;18.58;;
25531;SDS011;13429;48.816;9.118;2023-02-11T05:53:25;32.88;;;16.38;;
25531;SDS011;13429;48.816;9.118;2023-02-11T05:55:51;38.70;;;18.35;;
25531;SDS011;13429;48.816;9.118;2023-02-11T05:58:17;36.38;;;18.10;;
25531;SDS011;13429;48.816;9.118;2023-02-11T06:00:43;32.90;;;17.55;;
25531;SDS011;13429;48.816;9.118;2023-02-11T06:03:09;34.08;;;18.27;;
25531;SDS011;13429;48.816;9.118;2023-02-11T06:05:35;31.75;;;16.33;;
25531;SDS011;13429;48.816;9.118;2023-02-11T06:08:01;33.65;;;16.42;;
25531;SDS011;13429;48.816;9.118;2023-02-11T06:10:27;32.75;;;18.13;;
25531;SDS011;13429;48.816;9.118;2023-02-11T06:12:53;34.97;;;19.48;;
25531;SDS011;13429;48.816;9.118;2023-02-11T06:15:19;33.47;;;18.73;;
25531;SDS011;13429;48.816;9.118;2023-02-11T06:17:45;35.15;;;18.25;;
25531;SDS011;13429;48.816;9.118;2023-02-11T06:20:11;41.72;;;21.23;;
25531;SDS011;13429;48.816;9.118;2023-02-11T06:22:37;45.13;;;21.85;;
25531;SDS011;13429;48.816;9.118;2023-02-11T06:25:03;39.67;;;22.15;;
25531;SDS011;13429;48.816;9.118;2023-02-11T06:27:30;51.42;;;22.60;;
25531;SDS011;13429;48.816;9.118;2023-02-11T06:29:56;42.55;;;22.85;;
25531;SDS011;13429;48.816;9.118;2023-02-11T06:32:22;36.78;;;20.50;;
25531;SDS011;13429;48.816;9.118;2023-02-11T06:34:48;39.10;;;20.33;;
25531;SDS011;13429;48.816;9.118;2023-02-11T06:37:14;38.75;;;21.35;;
25531;SDS011;13429;48.816;9.118;2023-02-11T06:39:40;41.42;;;22.10;;
25531;SDS011;13429;48.816;9.118;2023-02-11T06:42:06;39.30;;;21.10;;
25531;SDS011;13429;48.816;9.118;2023-02-11T06:44:32;42.45;;;23.58;;
25531;SDS011;13429;48.816;9.118;2023-02-11T06:46:58;44.40;;;26.40;;
25531;SDS011;13429;48.816;9.118;2023-02-11T06:49:24;51.92;;;26.98;;
25531;SDS011;13429;48.816;9.118;2023-02-11T06:51:53;42.78;;;25.05;;
25531;SDS011;13429;48.816;9.118;2023-02-11T06:54:19;45.15;;;24.08;;
25531;SDS011;13429;48.816;9.118;2023-02-11T06:56:45;40.92;;;22.90;;
25531;SDS011;13429;48.816;9.118;2023-02-11T06:59:15;36.88;;;20.52;;
25531;SDS011;13429;48.816;9.118;2023-02-11T07:01:41;37.55;;;20.33;;
25531;SDS011;13429;48.816;9.118;2023-02-11T07:04:07;38.58;;;20.77;;
25531;SDS011;13429;48.816;9.118;2023-02-11T07:06:33;38.40;;;19.02;;
25531;SDS011;13429;48.816;9.118;2023-02-11T07:09:01;36.60;;;19.10;;
25531;SDS011;13429;48.816;9.118;2023-02-11T07:11:28;40.25;;;20.35;;
25531;SDS011;13429;48.816;9.118;2023-02-11T07:13:55;32.88;;;17.70;;
25531;SDS011;13429;48.816;9.118;2023-02-11T07:16:21;35.38;;;20.27;;
25531;SDS011;13429;48.816;9.118;2023-02-11T07:18:48;40.10;;;20.65;;
25531;SDS011;13429;48.816;9.118;2023-02-11T07:21:15;40.30;;;19.17;;
25531;SDS011;13429;48.816;9.118;2023-02-11T07:23:41;35.85;;;18.77;;
25531;SDS011;13429;48.816;9.118;2023-02-11T07:26:08;38.40;;;20.48;;
25531;SDS011;13429;48.816;9.118;2023-02-11T07:28:35;31.88;;;19.20;;
25531;SDS011;13429;48.816;9.118;2023-02-11T07:31:08;32.15;;;18.33;;
25531;SDS011;13429;48.816;9.118;2023-02-11T07:33:35;38.97;;;19.20;;
25531;SDS011;13429;48.816;9.118;2023-02-11T07:36:01;37.55;;;22.77;;
25531;SDS011;13429;48.816;9.118;2023-02-11T07:38:27;42.53;;;22.73;;
25531;SDS011;13429;48.816;9.118;2023-02-11T07:40:54;35.78;;;21.55;;
25531;SDS011;13429;48.816;9.118;2023-02-11T07:43:20;44.00;;;22.92;;
25531;SDS011;13429;48.816;9.118;2023-02-11T07:45:46;42.75;;;24.80;;
25531;SDS011;13429;48.816;9.118;2023-02-11T07:48:11;36.88;;;21.77;;
25531;SDS011;13429;48.816;9.118;2023-02-11T07:50:37;40.35;;;21.65;;
25531;SDS011;13429;48.816;9.118;2023-02-11T07:53:03;37.78;;;21.55;;
25531;SDS011;13429;48.816;9.118;2023-02-11T07:55:30;39.65;;;22.30;;
25531;SDS011;13429;48.816;9.118;2023-02-11T07:57:56;39.30;;;21.88;;
25531;SDS011;13429;48.816;9.118;2023-02-11T08:00:22;38.20;;;20.50;;
25531;SDS011;13429;48.816;9.118;2023-02-11T08:02:48;34.35;;;20.52;;
25531;SDS011;13429;48.816;9.118;2023-02-11T08:05:14;39.60;;;21.08;;
25531;SDS011;13429;48.816;9.118;2023-02-11T08:07:40;40.67;;;20.80;;
25531;SDS011;13429;48.816;9.118;2023-02-11T08:10:06;38.90;;;20.77;;
25531;SDS011;13429;48.816;9.118;2023-02-11T08:12:32;36.08;;;19.40;;
25531;SDS011;13429;48.816;9.118;2023-02-11T08:14:58;37.03;;;20.42;;
25531;SDS011;13429;48.816;9.118;2023-02-11T08:17:24;33.47;;;18.25;;
25531;SDS011;13429;48.816;9.118;2023-02-11T08:19:50;31.20;;;19.40;;
25531;SDS011;13429;48.816;9.118;2023-02-11T08:22:16;33.05;;;17.90;;
25531;SDS011;13429;48.816;9.118;2023-02-11T08:24:42;38.30;;;20.67;;
25531;SDS011;13429;48.816;9.118;2023-02-11T08:27:08;34.67;;;19.67;;
25531;SDS011;13429;48.816;9.118;2023-02-11T08:29:34;34.13;;;19.23;;
25531;SDS011;13429;48.816;9.118;2023-02-11T08:32:01;34.17;;;18.38;;
25531;SDS011;13429;48.816;9.118;2023-02-11T08:34:27;45.35;;;23.38;;
25531;SDS011;13429;48.816;9.118;2023-02-11T08:36:53;38.85;;;21.67;;
25531;SDS011;13429;48.816;9.118;2023-02-11T08:39:20;41.33;;;23.38;;
25531;SDS011;13429;48.816;9.118;2023-02-11T08:41:47;46.83;;;24.70;;
25531;SDS011;13429;48.816;9.118;2023-02-11T08:44:14;50.17;;;25.80;;
25531;SDS011;13429;48.816;9.118;2023-02-11T08:46:40;44.85;;;23.38;;
25531;SDS011;13429;48.816;9.118;2023-02-11T08:49:06;37.42;;;20.15;;
25531;SDS011;13429;48.816;9.118;2023-02-11T08:51:32;32.55;;;18.92;;
25531;SDS011;13429;48.816;9.118;2023-02-11T08:53:59;36.70;;;19.80;;
25531;SDS011;13429;48.816;9.118;2023-02-11T08:56:25;34.13;;;20.63;;
25531;SDS011;13429;48.816;9.118;2023-02-11T08:58:51;30.60;;;19.00;;
25531;SDS011;13429;48.816;9.118;2023-02-11T09:01:19;34.90;;;17.73;;
25531;SDS011;13429;48.816;9.118;2023-02-11T09:03:45;31.80;;;17.52;;
25531;SDS011;13429;48.816;9.118;2023-02-11T09:06:11;29.48;;;16.58;;
25531;SDS011;13429;48.816;9.118;2023-02-11T09:08:38;27.95;;;14.65;;
25531;SDS011;13429;48.816;9.118;2023-02-11T09:11:05;24.63;;;14.52;;
25531;SDS011;13429;48.816;9.118;2023-02-11T09:13:32;24.02;;;12.65;;
25531;SDS011;13429;48.816;9.118;2023-02-11T09:15:59;22.50;;;12.38;;
25531;SDS011;13429;48.816;9.118;2023-02-11T09:18:26;22.17;;;11.88;;
25531;SDS011;13429;48.816;9.118;2023-02-11T09:20:52;20.52;;;12.70;;
25531;SDS011;13429;48.816;9.118;2023-02-11T09:23:18;18.00;;;12.00;;
25531;SDS011;13429;48.816;9.118;2023-02-11T09:25:44;24.50;;;13.60;;
25531;SDS011;13429;48.816;9.118;2023-02-11T09:28:10;25.73;;;14.07;;
25531;SDS011;13429;48.816;9.118;2023-02-11T09:30:37;29.48;;;13.40;;
25531;SDS011;13429;48.816;9.118;2023-02-11T09:33:03;24.60;;;13.70;;
25531;SDS011;13429;48.816;9.118;2023-02-11T09:35:29;23.05;;;14.32;;
25531;SDS011;13429;48.816;9.118;2023-02-11T09:37:55;24.00;;;14.40;;
25531;SDS011;13429;48.816;9.118;2023-02-11T09:40:21;23.85;;;14.00;;
25531;SDS011;13429;48.816;9.118;2023-02-11T09:42:50;23.90;;;13.77;;
25531;SDS011;13429;48.816;9.118;2023-02-11T09:45:19;25.88;;;13.32;;
25531;SDS011;13429;48.816;9.118;2023-02-11T09:47:51;15.73;;;9.15;;
25531;SDS011;13429;48.816;9.118;2023-02-11T09:50:23;18.45;;;11.27;;
25531;SDS011;13429;48.816;9.118;2023-02-11T09:53:00;14.18;;;9.18;;
25531;SDS011;13429;48.816;9.118;2023-02-11T09:55:28;21.33;;;10.93;;
25531;SDS011;13429;48.816;9.118;2023-02-11T09:57:55;22.77;;;11.25;;
25531;SDS011;13429;48.816;9.118;2023-02-11T10:00:32;17.15;;;10.70;;
25531;SDS011;13429;48.816;9.118;2023-02-11T10:13:53;21.83;;;10.18;;
25531;SDS011;13429;48.816;9.118;2023-02-11T10:16:30;21.73;;;10.65;;
25531;SDS011;13429;48.816;9.118;2023-02-11T10:23:59;14.73;;;9.20;;
25531;SDS011;13429;48.816;9.118;2023-02-11T10:26:29;16.08;;;8.75;;
25531;SDS011;13429;48.816;9.118;2023-02-11T10:28:59;17.38;;;10.50;;
25531;SDS011;13429;48.816;9.118;2023-02-11T10:36:18;14.77;;;8.18;;
25531;SDS011;13429;48.816;9.118;2023-02-11T10:38:47;13.75;;;6.35;;
25531;SDS011;13429;48.816;9.118;2023-02-11T10:41:20;13.65;;;6.53;;
25531;SDS011;13429;48.816;9.118;2023-02-11T10:43:46;11.65;;;7.57;;
25531;SDS011;13429;48.816;9.118;2023-02-11T10:46:21;9.52;;;4.88;;
25531;SDS011;13429;48.816;9.118;2023-02-11T10:48:52;9.82;;;5.70;;
25531;SDS011;13429;48.816;9.118;2023-02-11T10:51:22;9.88;;;5.88;;
25531;SDS011;13429;48.816;9.118;2023-02-11T10:56:36;11.93;;;7.15;;
25531;SDS011;13429;48.816;9.118;2023-02-11T11:01:49;9.05;;;6.45;;
25531;SDS011;13429;48.816;9.118;2023-02-11T11:06:54;8.77;;;5.70;;
25531;SDS011;13429;48.816;9.118;2023-02-11T11:09:28;10.77;;;6.53;;
25531;SDS011;13429;48.816;9.118;2023-02-11T11:11:56;9.10;;;5.53;;
25531;SDS011;13429;48.816;9.118;2023-02-11T11:14:23;9.98;;;5.90;;
25531;SDS011;13429;48.816;9.118;2023-02-11T11:16:52;7.63;;;5.40;;
25531;SDS011;13429;48.816;9.118;2023-02-11T11:19:23;9.52;;;5.95;;
25531;SDS011;13429;48.816;9.118;2023-02-11T11:21:50;10.40;;;5.80;;
25531;SDS011;13429;48.816;9.118;2023-02-11T11:29:14;9.73;;;5.47;;
25531;SDS011;13429;48.816;9.118;2023-02-11T11:31:45;10.70;;;5.78;;
25531;SDS011;13429;48.816;9.118;2023-02-11T11:34:20;12.27;;;6.13;;
25531;SDS011;13429;48.816;9.118;2023-02-11T11:36:46;15.25;;;8.00;;
25531;SDS011;13429;48.816;9.118;2023-02-11T11:39:17;12.13;;;7.30;;
25531;SDS011;13429;48.816;9.118;2023-02-11T11:41:49;10.30;;;6.85;;
25531;SDS011;13429;48.816;9.118;2023-02-11T11:44:20;15.65;;;7.55;;
25531;SDS011;13429;48.816;9.118;2023-02-11T11:46:48;16.90;;;8.15;;
25531;SDS011;13429;48.816;9.118;2023-02-11T11:51:44;11.27;;;6.78;;
25531;SDS011;13429;48.816;9.118;2023-02-11T11:54:12;13.82;;;8.05;;
25531;SDS011;13429;48.816;9.118;2023-02-11T11:56:52;12.38;;;7.60;;
25531;SDS011;13429;48.816;9.118;2023-02-11T11:59:19;16.55;;;7.88;;
25531;SDS011;13429;48.816;9.118;2023-02-11T12:05:01;9.45;;;5.72;;
25531;SDS011;13429;48.816;9.118;2023-02-11T12:12:34;11.68;;;7.03;;
25531;SDS011;13429;48.816;9.118;2023-02-11T12:22:40;38.67;;;15.50;;
25531;SDS011;13429;48.816;9.118;2023-02-11T12:25:20;14.32;;;8.45;;
25531;SDS011;13429;48.816;9.118;2023-02-11T12:33:09;14.07;;;6.82;;
25531;SDS011;13429;48.816;9.118;2023-02-11T12:40:47;14.40;;;7.38;;
25531;SDS011;13429;48.816;9.118;2023-02-11T12:43:28;15.02;;;7.40;;
25531;SDS011;13429;48.816;9.118;2023-02-11T12:45:59;11.52;;;6.68;;
25531;SDS011;13429;48.816;9.118;2023-02-11T12:56:23;11.95;;;6.82;;
25531;SDS011;13429;48.816;9.118;2023-02-11T12:58:51;14.85;;;9.18;;
25531;SDS011;13429;48.816;9.118;2023-02-11T13:01:20;20.45;;;9.45;;
25531;SDS011;13429;48.816;9.118;2023-02-11T13:03:54;23.10;;;11.30;;
25531;SDS011;13429;48.816;9.118;2023-02-11T13:06:29;23.58;;;13.18;;
25531;SDS011;13429;48.816;9.118;2023-02-11T13:08:59;24.80;;;13.35;;
25531;SDS011;13429;48.816;9.118;2023-02-11T13:11:27;23.90;;;13.27;;
25531;SDS011;13429;48.816;9.118;2023-02-11T13:14:04;26.05;;;14.90;;
25531;SDS011;13429;48.816;9.118;2023-02-11T13:16:35;23.13;;;13.27;;
25531;SDS011;13429;48.816;9.118;2023-02-11T13:26:32;24.10;;;13.88;;
25531;SDS011;13429;48.816;9.118;2023-02-11T13:29:09;26.95;;;15.45;;
25531;SDS011;13429;48.816;9.118;2023-02-11T13:31:37;24.90;;;14.05;;
25531;SDS011;13429;48.816;9.118;2023-02-11T13:34:19;27.13;;;14.00;;
25531;SDS011;13429;48.816;9.118;2023-02-11T13:36:52;28.98;;;15.13;;
25531;SDS011;13429;48.816;9.118;2023-02-11T13:39:22;32.28;;;15.02;;
25531;SDS011;13429;48.816;9.118;2023-02-11T13:41:49;24.00;;;13.90;;
25531;SDS011;13429;48.816;9.118;2023-02-11T13:44:20;26.08;;;14.68;;
25531;SDS011;13429;48.816;9.118;2023-02-11T13:46:48;23.67;;;14.18;;
25531;SDS011;13429;48.816;9.118;2023-02-11T13:49:19;25.15;;;14.32;;
25531;SDS011;13429;48.816;9.118;2023-02-11T13:51:46;27.65;;;14.93;;
25531;SDS011;13429;48.816;9.118;2023-02-11T13:54:23;27.98;;;14.32;;
25531;SDS011;13429;48.816;9.118;2023-02-11T14:02:08;36.40;;;15.63;;
25531;SDS011;13429;48.816;9.118;2023-02-11T14:10:55;31.35;;;15.82;;
25531;SDS011;13429;48.816;9.118;2023-02-11T14:15:48;28.60;;;15.60;;
25531;SDS011;13429;48.816;9.118;2023-02-11T14:21:09;27.48;;;14.30;;
25531;SDS011;13429;48.816;9.118;2023-02-11T14:23:37;23.67;;;13.82;;
25531;SDS011;13429;48.816;9.118;2023-02-11T14:26:08;23.42;;;13.77;;
25531;SDS011;13429;48.816;9.118;2023-02-11T14:28:39;22.88;;;13.10;;
25531;SDS011;13429;48.816;9.118;2023-02-11T14:31:13;27.40;;;13.40;;
25531;SDS011;13429;48.816;9.118;2023-02-11T14:41:40;28.08;;;13.23;;
25531;SDS011;13429;48.816;9.118;2023-02-11T14:44:12;24.15;;;12.25;;
25531;SDS011;13429;48.816;9.118;2023-02-11T14:46:42;22.73;;;12.57;;
25531;SDS011;13429;48.816;9.118;2023-02-11T14:49:11;25.38;;;15.25;;
25531;SDS011;13429;48.816;9.118;2023-02-11T14:51:41;24.42;;;15.15;;
25531;SDS011;13429;48.816;9.118;2023-02-11T14:54:17;24.23;;;12.95;;
25531;SDS011;13429;48.816;9.118;2023-02-11T14:56:46;23.50;;;13.20;;
25531;SDS011;13429;48.816;9.118;2023-02-11T14:59:29;27.83;;;15.05;;
25531;SDS011;13429;48.816;9.118;2023-02-11T15:01:55;20.83;;;13.25;;
25531;SDS011;13429;48.816;9.118;2023-02-11T15:07:01;22.35;;;13.65;;
25531;SDS011;13429;48.816;9.118;2023-02-11T15:09:33;25.63;;;14.65;;
25531;SDS011;13429;48.816;9.118;2023-02-11T15:12:01;25.25;;;13.40;;
25531;SDS011;13429;48.816;9.118;2023-02-11T15:14:32;26.48;;;14.07;;
25531;SDS011;13429;48.816;9.118;2023-02-11T15:16:59;25.17;;;15.38;;
25531;SDS011;13429;48.816;9.118;2023-02-11T15:19:36;20.75;;;13.40;;
25531;SDS011;13429;48.816;9.118;2023-02-11T15:22:03;24.42;;;13.95;;
25531;SDS011;13429;48.816;9.118;2023-02-11T15:24:30;23.23;;;14.10;;
25531;SDS011;13429;48.816;9.118;2023-02-11T15:29:24;21.98;;;14.30;;
25531;SDS011;13429;48.816;9.118;2023-02-11T15:34:50;30.70;;;17.05;;
25531;SDS011;13429;48.816;9.118;2023-02-11T15:39:42;30.35;;;17.08;;
25531;SDS011;13429;48.816;9.118;2023-02-11T15:47:37;25.05;;;14.95;;
25531;SDS011;13429;48.816;9.118;2023-02-11T15:50:04;27.50;;;15.65;;
25531;SDS011;13429;48.816;9.118;2023-02-11T15:52:30;35.03;;;19.70;;
25531;SDS011;13429;48.816;9.118;2023-02-11T15:54:58;34.45;;;20.30;;
25531;SDS011;13429;48.816;9.118;2023-02-11T15:57:25;24.25;;;15.45;;
25531;SDS011;13429;48.816;9.118;2023-02-11T15:59:52;30.55;;;16.13;;
25531;SDS011;13429;48.816;9.118;2023-02-11T16:02:31;23.58;;;15.48;;
25531;SDS011;13429;48.816;9.118;2023-02-11T16:05:05;33.33;;;18.52;;
25531;SDS011;13429;48.816;9.118;2023-02-11T16:07:38;29.02;;;17.77;;
25531;SDS011;13429;48.816;9.118;2023-02-11T16:10:24;29.52;;;17.33;;
25531;SDS011;13429;48.816;9.118;2023-02-11T16:13:01;26.80;;;16.25;;
25531;SDS011;13429;48.816;9.118;2023-02-11T16:18:17;27.02;;;15.32;;
25531;SDS011;13429;48.816;9.118;2023-02-11T16:20:47;26.70;;;15.98;;
25531;SDS011;13429;48.816;9.118;2023-02-11T16:23:17;28.75;;;16.15;;
25531;SDS011;13429;48.816;9.118;2023-02-11T16:25:45;29.95;;;17.80;;
25531;SDS011;13429;48.816;9.118;2023-02-11T16:28:12;25.73;;;15.10;;
25531;SDS011;13429;48.816;9.118;2023-02-11T16:30:39;29.77;;;16.30;;
25531;SDS011;13429;48.816;9.118;2023-02-11T16:33:05;30.30;;;16.30;;
25531;SDS011;13429;48.816;9.118;2023-02-11T16:35:31;26.60;;;16.83;;
25531;SDS011;13429;48.816;9.118;2023-02-11T16:37:57;29.25;;;16.35;;
25531;SDS011;13429;48.816;9.118;2023-02-11T16:40:23;28.83;;;17.63;;
25531;SDS011;13429;48.816;9.118;2023-02-11T16:42:49;33.63;;;17.75;;
25531;SDS011;13429;48.816;9.118;2023-02-11T16:45:17;47.22;;;22.55;;
25531;SDS011;13429;48.816;9.118;2023-02-11T16:47:43;57.65;;;31.60;;
25531;SDS011;13429;48.816;9.118;2023-02-11T16:50:11;42.22;;;23.30;;
25531;SDS011;13429;48.816;9.118;2023-02-11T16:52:43;41.08;;;21.45;;
25531;SDS011;13429;48.816;9.118;2023-02-11T16:55:10;33.20;;;19.17;;
25531;SDS011;13429;48.816;9.118;2023-02-11T16:57:36;27.95;;;16.88;;
25531;SDS011;13429;48.816;9.118;2023-02-11T17:00:03;32.67;;;18.60;;
25531;SDS011;13429;48.816;9.118;2023-02-11T17:02:31;30.23;;;18.58;;
25531;SDS011;13429;48.816;9.118;2023-02-11T17:04:59;31.98;;;18.23;;